Etretat — FIDP — position and weather

sailwx.info

Track history (hours):
 
Tides and Currents Weather Stations Pressure Air Temp Water Temp Dewpoint Dewpoint Depression Visibility Wind Speed Wind Dir Waves Ship Positions

Etretat

Last reported at 2017-Dec-11 17:00 UTC. Time now 2017-Dec-12 18:10 UTC.
Position N 49°33' W 000°01'.

Length 187 m; draft 6 m.

Type: Ship. MMSI: 228022900.

Date/timePositionNaut miles runAvg speedWind from/ knotsBaromVisibWave heightAir tempDewpointWater temp
2017-Dec-11 17:00N 49°33' W 000°01'612.2
2017-Dec-11 16:30N 49°29' E 000°07'0 0.0
2017-Dec-11 16:00N 49°29' E 000°07'0 0.0
2017-Dec-11 15:30N 49°29' E 000°07'0 0.0
2017-Dec-11 15:00N 49°29' E 000°07'0 0.0
2017-Dec-11 14:30N 49°29' E 000°07'0 0.0
2017-Dec-11 14:00N 49°29' E 000°07'0 0.0
2017-Dec-11 13:30N 49°29' E 000°07'0 0.0
2017-Dec-11 13:00N 49°29' E 000°07'0 0.0
2017-Dec-11 12:30N 49°29' E 000°07'0 0.0
2017-Dec-11 12:00N 49°29' E 000°07'0 0.0
2017-Dec-11 11:30N 49°29' E 000°07'0 0.0
2017-Dec-11 11:00N 49°29' E 000°07'0 0.0
2017-Dec-11 10:30N 49°29' E 000°07'0 0.0
2017-Dec-11 10:00N 49°29' E 000°07'0 0.0
2017-Dec-11 09:30N 49°29' E 000°07'0 0.0
2017-Dec-11 09:00N 49°29' E 000°07'0 0.0
2017-Dec-11 08:30N 49°29' E 000°07'0 0.0
2017-Dec-11 08:00N 49°29' E 000°07'0 0.5
2017-Dec-11 07:30N 49°29' E 000°06'2 4.9
2017-Dec-11 07:01N 49°30' E 000°03'714.3
2017-Dec-11 06:31N 49°36' W 000°03'612.1
2017-Dec-11 06:00N 49°41' W 000°08'611.4
2017-Dec-11 05:30N 49°46' W 000°12'611.6
2017-Dec-11 05:00N 49°51' W 000°15'611.9
2017-Dec-11 04:30N 49°57' W 000°18'611.1
2017-Dec-11 04:00N 50°02' W 000°23'610.9
2017-Dec-11 03:30N 50°06' W 000°29'2911.3
2017-Dec-11 00:57N 50°31' W 000°50'614.1
2017-Dec-11 00:30N 50°36' W 000°55'713.7
2017-Dec-11 00:00N 50°43' W 000°59'713.3
2017-Dec-10 23:30N 50°48' W 001°07'1 2.4
2017-Dec-10 23:00N 50°49' W 001°06'0 0.0
2017-Dec-10 22:30N 50°49' W 001°06'0 0.0
2017-Dec-10 22:00N 50°49' W 001°06'0 0.2
2017-Dec-10 21:30N 50°49' W 001°06'3 6.8
2017-Dec-10 21:01N 50°45' W 001°05'714.5
2017-Dec-10 20:31N 50°40' W 000°58'816.6
2017-Dec-10 20:01N 50°33' W 000°51'1918.4
2017-Dec-10 18:58N 50°15' W 000°39'1118.1
2017-Dec-10 18:22N 50°06' W 000°29'718.6
2017-Dec-10 18:01N 50°00' W 000°24'918.5
2017-Dec-10 17:31N 49°52' W 000°17'918.7
2017-Dec-10 17:01N 49°44' W 000°10'1019.1
2017-Dec-10 16:31N 49°36' W 000°03'918.0
2017-Dec-10 16:01N 49°29' E 000°06'0 0.9
2017-Dec-10 15:30N 49°29' E 000°07'0 0.0
2017-Dec-10 15:00N 49°29' E 000°07'0 0.0
2017-Dec-10 14:30N 49°29' E 000°07'0 0.0
2017-Dec-10 14:01N 49°29' E 000°07'0 0.0
2017-Dec-10 13:30N 49°29' E 000°07'0 0.0
2017-Dec-10 13:00N 49°29' E 000°07'0 0.0
2017-Dec-10 12:31N 49°29' E 000°07'0 0.0
2017-Dec-10 12:01N 49°29' E 000°07'0 0.0
2017-Dec-10 11:31N 49°29' E 000°07'0 0.0
2017-Dec-10 11:01N 49°29' E 000°07'0 0.0
2017-Dec-10 10:31N 49°29' E 000°07'0 0.0
2017-Dec-10 10:01N 49°29' E 000°07'0 0.0
2017-Dec-10 09:31N 49°29' E 000°07'0 0.0
2017-Dec-10 09:01N 49°29' E 000°07'0 0.0
2017-Dec-10 08:31N 49°29' E 000°07'0 0.0
2017-Dec-10 08:01N 49°29' E 000°07'0 0.0
2017-Dec-10 07:31N 49°29' E 000°07'0 0.0
2017-Dec-10 07:00N 49°29' E 000°07'0 0.1
2017-Dec-10 06:31N 49°29' E 000°07'4 7.6
2017-Dec-10 06:00N 49°31' E 000°01'815.1
2017-Dec-10 05:30N 49°37' W 000°04'714.6
2017-Dec-10 05:01N 49°44' W 000°10'714.2
2017-Dec-10 04:30N 49°50' W 000°16'714.2
2017-Dec-10 04:00N 49°56' W 000°21'5 9.3
2017-Dec-10 03:30N 50°00' W 000°24'5 9.9
2017-Dec-10 03:00N 50°04' W 000°27'510.1
2017-Dec-10 02:30N 50°09' W 000°31'2713.1
2017-Dec-10 00:26N 50°33' W 000°49'614.2
2017-Dec-10 00:01N 50°39' W 000°54'714.1
2017-Dec-09 23:31N 50°43' W 001°02'611.8
2017-Dec-09 23:01N 50°49' W 001°06'0 0.6
2017-Dec-09 22:31N 50°49' W 001°06'0 0.0
2017-Dec-09 22:01N 50°49' W 001°06'0 0.0
2017-Dec-09 21:30N 50°49' W 001°06'2 4.7
2017-Dec-09 21:00N 50°46' W 001°06'816.6
2017-Dec-09 20:30N 50°40' W 000°56'1019.2
2017-Dec-09 20:00N 50°32' W 000°48'1918.6
2017-Dec-09 18:59N 50°15' W 000°37'918.5
2017-Dec-09 18:30N 50°06' W 000°32'918.7
2017-Dec-09 18:00N 49°59' W 000°24'918.7
2017-Dec-09 17:30N 49°51' W 000°16'918.7
2017-Dec-09 17:00N 49°43' W 000°09'918.5
2017-Dec-09 16:30N 49°35' W 000°02'815.9
2017-Dec-09 16:00N 49°29' E 000°07'0 0.1
2017-Dec-09 15:30N 49°29' E 000°07'0 0.0
2017-Dec-09 15:00N 49°29' E 000°07'0 0.0
2017-Dec-09 14:30N 49°29' E 000°07'0 0.0
2017-Dec-09 14:00N 49°29' E 000°07'0 0.0
2017-Dec-09 13:30N 49°29' E 000°07'0 0.0
2017-Dec-09 13:00N 49°29' E 000°07'0 0.0
2017-Dec-09 12:30N 49°29' E 000°07'0 0.0
2017-Dec-09 12:00N 49°29' E 000°07'0 0.0
2017-Dec-09 11:30N 49°29' E 000°07'0 0.0
2017-Dec-09 11:00N 49°29' E 000°07'0 0.0
2017-Dec-09 10:30N 49°29' E 000°07'0 0.0
2017-Dec-09 10:00N 49°29' E 000°07'0 0.0
2017-Dec-09 09:30N 49°29' E 000°07'0 0.0
2017-Dec-09 09:00N 49°29' E 000°07'0 0.0
2017-Dec-09 08:30N 49°29' E 000°07'0 0.0
2017-Dec-09 08:00N 49°29' E 000°07'0 0.0
2017-Dec-09 07:30N 49°29' E 000°07'2 4.7
2017-Dec-09 07:00N 49°30' E 000°03'714.5
2017-Dec-09 06:30N 49°35' W 000°03'713.9
2017-Dec-09 06:00N 49°42' W 000°08'714.0
2017-Dec-09 05:30N 49°48' W 000°14'714.1
2017-Dec-09 05:00N 49°53' W 000°21'510.7
2017-Dec-09 04:30N 49°57' W 000°26'510.6
2017-Dec-09 04:00N 50°02' W 000°29'3211.0
2017-Dec-09 01:04N 50°32' W 000°50'111.3
2017-Dec-09 01:00N 50°32' W 000°50'612.7
2017-Dec-09 00:30N 50°38' W 000°55'713.9
2017-Dec-09 00:00N 50°43' W 001°02'611.9
2017-Dec-08 23:31N 50°49' W 001°06'0 0.8
2017-Dec-08 23:00N 50°49' W 001°06'0 0.0
2017-Dec-08 22:30N 50°49' W 001°06'0 0.0
2017-Dec-08 22:00N 50°49' W 001°06'0 0.0
2017-Dec-08 21:30N 50°49' W 001°06'0 0.0
2017-Dec-08 21:00N 50°49' W 001°06'0 0.0
2017-Dec-08 20:31N 50°49' W 001°06'0 0.0
2017-Dec-08 20:00N 50°49' W 001°06'0 0.0
2017-Dec-08 19:31N 50°49' W 001°06'0 0.0
2017-Dec-08 19:00N 50°49' W 001°06'0 0.0
2017-Dec-08 18:31N 50°49' W 001°06'0 0.0
2017-Dec-08 18:00N 50°49' W 001°06'0 0.0
2017-Dec-08 17:30N 50°49' W 001°06'0 0.0
2017-Dec-08 17:00N 50°49' W 001°06'0 0.0
2017-Dec-08 16:30N 50°49' W 001°06'0 0.0
2017-Dec-08 16:00N 50°49' W 001°06'0 0.0
2017-Dec-08 15:31N 50°49' W 001°06'0 0.0
2017-Dec-08 15:01N 50°49' W 001°06'0 0.0
2017-Dec-08 14:31N 50°49' W 001°06'0 0.0
2017-Dec-08 14:00N 50°49' W 001°06'0 0.0
2017-Dec-08 13:30N 50°49' W 001°06'0 0.0
2017-Dec-08 13:00N 50°49' W 001°06'0 0.0
2017-Dec-08 12:31N 50°49' W 001°06'0 0.0
2017-Dec-08 12:01N 50°49' W 001°06'0 0.0
2017-Dec-08 11:30N 50°49' W 001°06'0 0.0
2017-Dec-08 11:00N 50°49' W 001°06'0 0.0
2017-Dec-08 10:31N 50°49' W 001°06'0 0.0
2017-Dec-08 10:00N 50°49' W 001°06'0 0.0
2017-Dec-08 09:30N 50°49' W 001°06'0 0.0
2017-Dec-08 09:00N 50°49' W 001°06'0 0.0
2017-Dec-08 08:30N 50°49' W 001°06'0 0.0
2017-Dec-08 08:00N 50°49' W 001°06'0 0.0
2017-Dec-08 07:30N 50°49' W 001°06'1 1.8
2017-Dec-08 07:00N 50°48' W 001°07'613.0
2017-Dec-08 06:30N 50°43' W 001°01'611.5
2017-Dec-08 06:01N 50°39' W 000°55'4 8.9
2017-Dec-08 05:31N 50°35' W 000°52'34 9.2
2017-Dec-08 01:48N 50°04' W 000°27'3 8.9
2017-Dec-08 01:28N 50°02' W 000°24'4 9.1
2017-Dec-08 01:01N 49°58' W 000°22'4 8.7
2017-Dec-08 00:30N 49°54' W 000°19'4 8.7
2017-Dec-08 00:00N 49°50' W 000°15'4 8.8
2017-Dec-07 23:31N 49°47' W 000°12'4 9.0
2017-Dec-07 23:00N 49°43' W 000°08'4 8.9
2017-Dec-07 22:30N 49°39' W 000°05'4 8.8
2017-Dec-07 22:01N 49°35' W 000°03'4 8.7
2017-Dec-07 21:31N 49°31' E 000°01'4 8.5
2017-Dec-07 21:00N 49°29' E 000°07'0 0.0
2017-Dec-07 20:31N 49°29' E 000°07'0 0.0
2017-Dec-07 20:00N 49°29' E 000°07'0 0.0
2017-Dec-07 19:31N 49°29' E 000°07'0 0.0
2017-Dec-07 19:00N 49°29' E 000°07'0 0.0
2017-Dec-07 18:30N 49°29' E 000°07'0 0.0
2017-Dec-07 18:00N 49°29' E 000°07'0 0.0
2017-Dec-07 17:30N 49°29' E 000°07'0 0.0
2017-Dec-07 17:00N 49°29' E 000°07'0 0.0
2017-Dec-07 16:31N 49°29' E 000°07'0 0.0
2017-Dec-07 16:01N 49°29' E 000°07'0 0.0
2017-Dec-07 15:30N 49°29' E 000°07'0 0.0
2017-Dec-07 15:01N 49°29' E 000°07'0 0.0
2017-Dec-07 14:31N 49°29' E 000°07'0 0.0
2017-Dec-07 14:00N 49°29' E 000°07'0 0.0
2017-Dec-07 13:31N 49°29' E 000°07'0 0.0
2017-Dec-07 13:00N 49°29' E 000°07'0 0.0
2017-Dec-07 12:30N 49°29' E 000°07'0 0.0
2017-Dec-07 12:01N 49°29' E 000°07'0 0.0
2017-Dec-07 11:31N 49°29' E 000°07'0 0.0
2017-Dec-07 11:00N 49°29' E 000°07'0 0.0
2017-Dec-07 10:31N 49°29' E 000°07'0 0.0
2017-Dec-07 10:01N 49°29' E 000°07'0 0.0
2017-Dec-07 09:31N 49°29' E 000°07'0 0.0
2017-Dec-07 09:01N 49°29' E 000°07'0 0.0
2017-Dec-07 08:30N 49°29' E 000°07'0 0.0
2017-Dec-07 08:00N 49°29' E 000°07'0 0.4
2017-Dec-07 07:30N 49°29' E 000°06'4 8.7
2017-Dec-07 07:01N 49°31' E 000°01'612.0
2017-Dec-07 06:30N 49°36' W 000°04'714.1
2017-Dec-07 06:01N 49°43' W 000°09'714.1
2017-Dec-07 05:30N 49°49' W 000°14'713.9
2017-Dec-07 05:00N 49°55' W 000°19'713.6
2017-Dec-07 04:30N 50°01' W 000°23'510.6
2017-Dec-07 04:00N 50°06' W 000°27'2911.7
2017-Dec-07 01:32N 50°31' W 000°49'113.3
2017-Dec-07 01:28N 50°32' W 000°50'613.2
2017-Dec-07 01:00N 50°37' W 000°54'713.1
2017-Dec-07 00:31N 50°43' W 000°59'713.1
2017-Dec-07 00:00N 50°48' W 001°07'1 2.5
2017-Dec-06 23:31N 50°49' W 001°06'0 0.0
2017-Dec-06 23:00N 50°49' W 001°06'0 0.0
2017-Dec-06 22:30N 50°49' W 001°06'0 0.0
2017-Dec-06 22:00N 50°49' W 001°06'0 0.2
2017-Dec-06 21:30N 50°49' W 001°06'3 5.7
2017-Dec-06 21:00N 50°46' W 001°05'  
2017-Dec-04 10:30N 49°29' E 000°07'0 0.0
2017-Dec-04 10:00N 49°29' E 000°07'0 0.0
2017-Dec-04 09:30N 49°29' E 000°07'0 0.0
2017-Dec-04 09:00N 49°29' E 000°07'0 0.0
2017-Dec-04 08:30N 49°29' E 000°07'0 0.0
2017-Dec-04 08:00N 49°29' E 000°07'0 0.0
2017-Dec-04 07:30N 49°29' E 000°07'2 4.4
2017-Dec-04 07:01N 49°29' E 000°03'612.4
2017-Dec-04 06:30N 49°36' E 000°02'2 3.9
2017-Dec-04 06:00N 49°38' E 000°01'1 1.8
2017-Dec-04 05:30N 49°38' E 000°00'1 1.1
2017-Dec-04 05:00N 49°39' W 000°00'612.9
2017-Dec-04 04:30N 49°43' W 000°08'815.1
2017-Dec-04 04:00N 49°49' W 000°14'816.0
2017-Dec-04 03:30N 49°56' W 000°20'815.7
2017-Dec-04 03:00N 50°03' W 000°26'3016.1
2017-Dec-04 01:10N 50°30' W 000°46'315.3
2017-Dec-04 00:59N 50°32' W 000°48'715.4
2017-Dec-04 00:30N 50°38' W 000°55'816.2
2017-Dec-04 00:00N 50°44' W 001°04'5 9.9
2017-Dec-03 23:30N 50°49' W 001°06'0 0.0
2017-Dec-03 23:00N 50°49' W 001°06'0 0.0
2017-Dec-03 22:30N 50°49' W 001°06'0 0.0
2017-Dec-03 22:00N 50°49' W 001°06'0 0.0
2017-Dec-03 21:30N 50°49' W 001°06'2 4.1
2017-Dec-03 21:00N 50°47' W 001°06'816.7
2017-Dec-03 20:30N 50°41' W 000°57'1019.5
2017-Dec-03 20:00N 50°33' W 000°48'1719.1
2017-Dec-03 19:07N 50°18' W 000°35'1418.8
2017-Dec-03 18:23N 50°05' W 000°26'719.4
2017-Dec-03 18:00N 49°58' W 000°22'1019.3
2017-Dec-03 17:30N 49°50' W 000°15'1019.5
2017-Dec-03 17:00N 49°41' W 000°07'1020.1
2017-Dec-03 16:30N 49°32' W 000°00'611.4
2017-Dec-03 16:00N 49°29' E 000°07'0 0.0
2017-Dec-03 15:30N 49°29' E 000°07'0 0.0
2017-Dec-03 15:00N 49°29' E 000°07'0 0.0
2017-Dec-03 14:30N 49°29' E 000°07'0 0.0
2017-Dec-03 14:00N 49°29' E 000°07'0 0.0
2017-Dec-03 13:30N 49°29' E 000°07'0 0.0
2017-Dec-03 13:00N 49°29' E 000°07'0 0.0
2017-Dec-03 12:30N 49°29' E 000°07'0 0.0
2017-Dec-03 12:00N 49°29' E 000°07'0 0.0
2017-Dec-03 11:30N 49°29' E 000°07'0 0.0
2017-Dec-03 11:00N 49°29' E 000°07'0 0.0
2017-Dec-03 10:30N 49°29' E 000°07'0 0.0
2017-Dec-03 10:00N 49°29' E 000°07'0 0.0
2017-Dec-03 09:30N 49°29' E 000°07'0 0.0
2017-Dec-03 09:00N 49°29' E 000°07'0 0.0
2017-Dec-03 08:30N 49°29' E 000°07'0 0.0
2017-Dec-03 08:00N 49°29' E 000°07'0 0.0
2017-Dec-03 07:30N 49°29' E 000°07'2 4.3
2017-Dec-03 07:00N 49°30' E 000°03'714.9
2017-Dec-03 06:31N 49°35' W 000°05'713.1
2017-Dec-03 06:00N 49°40' W 000°11'1 2.4
2017-Dec-03 05:30N 49°40' W 000°13'3 5.5
2017-Dec-03 05:00N 49°42' W 000°17'714.2
2017-Dec-03 04:30N 49°47' W 000°24'714.2
2017-Dec-03 04:00N 49°54' W 000°27'815.4
2017-Dec-03 03:31N 50°01' W 000°30'2913.6
2017-Dec-03 01:24N 50°28' W 000°46'613.0
2017-Dec-03 00:58N 50°33' W 000°50'511.8
2017-Dec-03 00:30N 50°38' W 000°55'612.7
2017-Dec-03 00:00N 50°43' W 001°00'611.6
2017-Dec-02 23:31N 50°47' W 001°06'2 3.1
2017-Dec-02 23:00N 50°49' W 001°06'0 0.0
2017-Dec-02 22:31N 50°49' W 001°06'0 0.0
2017-Dec-02 22:00N 50°49' W 001°06'0 0.0
2017-Dec-02 21:31N 50°49' W 001°06'2 4.4
2017-Dec-02 21:01N 50°46' W 001°06'816.7
2017-Dec-02 20:31N 50°40' W 000°57'918.4
2017-Dec-02 20:00N 50°32' W 000°50'2018.6
2017-Dec-02 18:57N 50°16' W 000°33'1218.9
2017-Dec-02 18:20N 50°05' W 000°26'618.8
2017-Dec-02 18:00N 49°60' W 000°22'918.7
2017-Dec-02 17:30N 49°51' W 000°16'1019.8
2017-Dec-02 17:00N 49°42' W 000°09'1020.5
2017-Dec-02 16:30N 49°33' W 000°01'713.1
2017-Dec-02 16:01N 49°29' E 000°06'0 0.5
2017-Dec-02 15:31N 49°29' E 000°07'0 0.0
2017-Dec-02 15:01N 49°29' E 000°07'0 0.0
2017-Dec-02 14:31N 49°29' E 000°07'0 0.0
2017-Dec-02 14:01N 49°29' E 000°07'0 0.0
2017-Dec-02 13:31N 49°29' E 000°07'0 0.0
2017-Dec-02 13:01N 49°29' E 000°07'0 0.0
2017-Dec-02 12:30N 49°29' E 000°07'0 0.0
2017-Dec-02 12:01N 49°29' E 000°07'0 0.0
2017-Dec-02 11:30N 49°29' E 000°07'0 0.0
2017-Dec-02 11:01N 49°29' E 000°07'0 0.0
2017-Dec-02 10:31N 49°29' E 000°07'0 0.0
2017-Dec-02 10:00N 49°29' E 000°07'0 0.0
2017-Dec-02 09:31N 49°29' E 000°07'0 0.0
2017-Dec-02 09:01N 49°29' E 000°07'0 0.0
2017-Dec-02 08:31N 49°29' E 000°07'0 0.0
2017-Dec-02 08:00N 49°29' E 000°07'0 0.0
2017-Dec-02 07:31N 49°29' E 000°07'1 1.4
2017-Dec-02 07:01N 49°29' E 000°06'713.1
2017-Dec-02 06:30N 49°34' W 000°02'713.2
2017-Dec-02 06:00N 49°40' W 000°06'611.6
2017-Dec-02 05:30N 49°45' W 000°10'612.1
2017-Dec-02 05:00N 49°50' W 000°15'611.9
2017-Dec-02 04:30N 49°55' W 000°19'611.3
2017-Dec-02 04:00N 49°60' W 000°24'510.4
2017-Dec-02 03:30N 50°04' W 000°29'2811.7
2017-Dec-02 01:09N 50°29' W 000°48'213.1
2017-Dec-02 00:59N 50°31' W 000°49'612.9
2017-Dec-02 00:30N 50°36' W 000°54'713.8
2017-Dec-02 00:00N 50°42' W 000°59'713.2
2017-Dec-01 23:30N 50°47' W 001°06'2 3.4
2017-Dec-01 23:00N 50°49' W 001°06'0 0.0
2017-Dec-01 22:31N 50°49' W 001°06'0 0.0
2017-Dec-01 22:00N 50°49' W 001°06'0 0.0
2017-Dec-01 21:31N 50°49' W 001°06'0 0.0
2017-Dec-01 21:00N 50°49' W 001°06'0 0.0
2017-Dec-01 20:31N 50°49' W 001°06'0 0.0
2017-Dec-01 20:00N 50°49' W 001°06'0 0.0
2017-Dec-01 19:30N 50°49' W 001°06'0 0.0
2017-Dec-01 19:00N 50°49' W 001°06'0 0.0
2017-Dec-01 18:30N 50°49' W 001°06'0 0.0
2017-Dec-01 18:01N 50°49' W 001°06'0 0.0
2017-Dec-01 17:31N 50°49' W 001°06'0 0.0
2017-Dec-01 17:00N 50°49' W 001°06'  
Track history (hours):
 
Tides and Currents Weather Stations Pressure Air Temp Water Temp Dewpoint Dewpoint Depression Visibility Wind Speed Wind Dir Waves Ship Positions

Etretat

Last reported at 2017-Dec-11 17:00 UTC. Time now 2017-Dec-12 18:10 UTC.
Position N 49°33' W 000°01'.

Length 187 m; draft 6 m.

Type: Ship. MMSI: 228022900.

Date/timePositionNaut miles runAvg speedWind from/ knotsBaromVisibWave heightAir tempDewpointWater temp
2017-Dec-11 17:00N 49°33' W 000°01'612.2
2017-Dec-11 16:30N 49°29' E 000°07'0 0.0
2017-Dec-11 16:00N 49°29' E 000°07'0 0.0
2017-Dec-11 15:30N 49°29' E 000°07'0 0.0
2017-Dec-11 15:00N 49°29' E 000°07'0 0.0
2017-Dec-11 14:30N 49°29' E 000°07'0 0.0
2017-Dec-11 14:00N 49°29' E 000°07'0 0.0
2017-Dec-11 13:30N 49°29' E 000°07'0 0.0
2017-Dec-11 13:00N 49°29' E 000°07'0 0.0
2017-Dec-11 12:30N 49°29' E 000°07'0 0.0
2017-Dec-11 12:00N 49°29' E 000°07'0 0.0
2017-Dec-11 11:30N 49°29' E 000°07'0 0.0
2017-Dec-11 11:00N 49°29' E 000°07'0 0.0
2017-Dec-11 10:30N 49°29' E 000°07'0 0.0
2017-Dec-11 10:00N 49°29' E 000°07'0 0.0
2017-Dec-11 09:30N 49°29' E 000°07'0 0.0
2017-Dec-11 09:00N 49°29' E 000°07'0 0.0
2017-Dec-11 08:30N 49°29' E 000°07'0 0.0
2017-Dec-11 08:00N 49°29' E 000°07'0 0.5
2017-Dec-11 07:30N 49°29' E 000°06'2 4.9
2017-Dec-11 07:01N 49°30' E 000°03'714.3
2017-Dec-11 06:31N 49°36' W 000°03'612.1
2017-Dec-11 06:00N 49°41' W 000°08'611.4
2017-Dec-11 05:30N 49°46' W 000°12'611.6
2017-Dec-11 05:00N 49°51' W 000°15'611.9
2017-Dec-11 04:30N 49°57' W 000°18'611.1
2017-Dec-11 04:00N 50°02' W 000°23'610.9
2017-Dec-11 03:30N 50°06' W 000°29'2911.3
2017-Dec-11 00:57N 50°31' W 000°50'614.1
2017-Dec-11 00:30N 50°36' W 000°55'713.7
2017-Dec-11 00:00N 50°43' W 000°59'713.3
2017-Dec-10 23:30N 50°48' W 001°07'1 2.4
2017-Dec-10 23:00N 50°49' W 001°06'0 0.0
2017-Dec-10 22:30N 50°49' W 001°06'0 0.0
2017-Dec-10 22:00N 50°49' W 001°06'0 0.2
2017-Dec-10 21:30N 50°49' W 001°06'3 6.8
2017-Dec-10 21:01N 50°45' W 001°05'714.5
2017-Dec-10 20:31N 50°40' W 000°58'816.6
2017-Dec-10 20:01N 50°33' W 000°51'1918.4
2017-Dec-10 18:58N 50°15' W 000°39'1118.1
2017-Dec-10 18:22N 50°06' W 000°29'718.6
2017-Dec-10 18:01N 50°00' W 000°24'918.5
2017-Dec-10 17:31N 49°52' W 000°17'918.7
2017-Dec-10 17:01N 49°44' W 000°10'1019.1
2017-Dec-10 16:31N 49°36' W 000°03'918.0
2017-Dec-10 16:01N 49°29' E 000°06'0 0.9
2017-Dec-10 15:30N 49°29' E 000°07'0 0.0
2017-Dec-10 15:00N 49°29' E 000°07'0 0.0
2017-Dec-10 14:30N 49°29' E 000°07'0 0.0
2017-Dec-10 14:01N 49°29' E 000°07'0 0.0
2017-Dec-10 13:30N 49°29' E 000°07'0 0.0
2017-Dec-10 13:00N 49°29' E 000°07'0 0.0
2017-Dec-10 12:31N 49°29' E 000°07'0 0.0
2017-Dec-10 12:01N 49°29' E 000°07'0 0.0
2017-Dec-10 11:31N 49°29' E 000°07'0 0.0
2017-Dec-10 11:01N 49°29' E 000°07'0 0.0
2017-Dec-10 10:31N 49°29' E 000°07'0 0.0
2017-Dec-10 10:01N 49°29' E 000°07'0 0.0
2017-Dec-10 09:31N 49°29' E 000°07'0 0.0
2017-Dec-10 09:01N 49°29' E 000°07'0 0.0
2017-Dec-10 08:31N 49°29' E 000°07'0 0.0
2017-Dec-10 08:01N 49°29' E 000°07'0 0.0
2017-Dec-10 07:31N 49°29' E 000°07'0 0.0
2017-Dec-10 07:00N 49°29' E 000°07'0 0.1
2017-Dec-10 06:31N 49°29' E 000°07'4 7.6
2017-Dec-10 06:00N 49°31' E 000°01'815.1
2017-Dec-10 05:30N 49°37' W 000°04'714.6
2017-Dec-10 05:01N 49°44' W 000°10'714.2
2017-Dec-10 04:30N 49°50' W 000°16'714.2
2017-Dec-10 04:00N 49°56' W 000°21'5 9.3
2017-Dec-10 03:30N 50°00' W 000°24'5 9.9
2017-Dec-10 03:00N 50°04' W 000°27'510.1
2017-Dec-10 02:30N 50°09' W 000°31'2713.1
2017-Dec-10 00:26N 50°33' W 000°49'614.2
2017-Dec-10 00:01N 50°39' W 000°54'714.1
2017-Dec-09 23:31N 50°43' W 001°02'611.8
2017-Dec-09 23:01N 50°49' W 001°06'0 0.6
2017-Dec-09 22:31N 50°49' W 001°06'0 0.0
2017-Dec-09 22:01N 50°49' W 001°06'0 0.0
2017-Dec-09 21:30N 50°49' W 001°06'2 4.7
2017-Dec-09 21:00N 50°46' W 001°06'816.6
2017-Dec-09 20:30N 50°40' W 000°56'1019.2
2017-Dec-09 20:00N 50°32' W 000°48'1918.6
2017-Dec-09 18:59N 50°15' W 000°37'918.5
2017-Dec-09 18:30N 50°06' W 000°32'918.7
2017-Dec-09 18:00N 49°59' W 000°24'918.7
2017-Dec-09 17:30N 49°51' W 000°16'918.7
2017-Dec-09 17:00N 49°43' W 000°09'918.5
2017-Dec-09 16:30N 49°35' W 000°02'815.9
2017-Dec-09 16:00N 49°29' E 000°07'0 0.1
2017-Dec-09 15:30N 49°29' E 000°07'0 0.0
2017-Dec-09 15:00N 49°29' E 000°07'0 0.0
2017-Dec-09 14:30N 49°29' E 000°07'0 0.0
2017-Dec-09 14:00N 49°29' E 000°07'0 0.0
2017-Dec-09 13:30N 49°29' E 000°07'0 0.0
2017-Dec-09 13:00N 49°29' E 000°07'0 0.0
2017-Dec-09 12:30N 49°29' E 000°07'0 0.0
2017-Dec-09 12:00N 49°29' E 000°07'0 0.0
2017-Dec-09 11:30N 49°29' E 000°07'0 0.0
2017-Dec-09 11:00N 49°29' E 000°07'0 0.0
2017-Dec-09 10:30N 49°29' E 000°07'0 0.0
2017-Dec-09 10:00N 49°29' E 000°07'0 0.0
2017-Dec-09 09:30N 49°29' E 000°07'0 0.0
2017-Dec-09 09:00N 49°29' E 000°07'0 0.0
2017-Dec-09 08:30N 49°29' E 000°07'0 0.0
2017-Dec-09 08:00N 49°29' E 000°07'0 0.0
2017-Dec-09 07:30N 49°29' E 000°07'2 4.7
2017-Dec-09 07:00N 49°30' E 000°03'714.5
2017-Dec-09 06:30N 49°35' W 000°03'713.9
2017-Dec-09 06:00N 49°42' W 000°08'714.0
2017-Dec-09 05:30N 49°48' W 000°14'714.1
2017-Dec-09 05:00N 49°53' W 000°21'510.7
2017-Dec-09 04:30N 49°57' W 000°26'510.6
2017-Dec-09 04:00N 50°02' W 000°29'3211.0
2017-Dec-09 01:04N 50°32' W 000°50'111.3
2017-Dec-09 01:00N 50°32' W 000°50'612.7
2017-Dec-09 00:30N 50°38' W 000°55'713.9
2017-Dec-09 00:00N 50°43' W 001°02'611.9
2017-Dec-08 23:31N 50°49' W 001°06'0 0.8
2017-Dec-08 23:00N 50°49' W 001°06'0 0.0
2017-Dec-08 22:30N 50°49' W 001°06'0 0.0
2017-Dec-08 22:00N 50°49' W 001°06'0 0.0
2017-Dec-08 21:30N 50°49' W 001°06'0 0.0
2017-Dec-08 21:00N 50°49' W 001°06'0 0.0
2017-Dec-08 20:31N 50°49' W 001°06'0 0.0
2017-Dec-08 20:00N 50°49' W 001°06'0 0.0
2017-Dec-08 19:31N 50°49' W 001°06'0 0.0
2017-Dec-08 19:00N 50°49' W 001°06'0 0.0
2017-Dec-08 18:31N 50°49' W 001°06'0 0.0
2017-Dec-08 18:00N 50°49' W 001°06'0 0.0
2017-Dec-08 17:30N 50°49' W 001°06'0 0.0
2017-Dec-08 17:00N 50°49' W 001°06'0 0.0
2017-Dec-08 16:30N 50°49' W 001°06'0 0.0
2017-Dec-08 16:00N 50°49' W 001°06'0 0.0
2017-Dec-08 15:31N 50°49' W 001°06'0 0.0
2017-Dec-08 15:01N 50°49' W 001°06'0 0.0
2017-Dec-08 14:31N 50°49' W 001°06'0 0.0
2017-Dec-08 14:00N 50°49' W 001°06'0 0.0
2017-Dec-08 13:30N 50°49' W 001°06'0 0.0
2017-Dec-08 13:00N 50°49' W 001°06'0 0.0
2017-Dec-08 12:31N 50°49' W 001°06'0 0.0
2017-Dec-08 12:01N 50°49' W 001°06'0 0.0
2017-Dec-08 11:30N 50°49' W 001°06'0 0.0
2017-Dec-08 11:00N 50°49' W 001°06'0 0.0
2017-Dec-08 10:31N 50°49' W 001°06'0 0.0
2017-Dec-08 10:00N 50°49' W 001°06'0 0.0
2017-Dec-08 09:30N 50°49' W 001°06'0 0.0
2017-Dec-08 09:00N 50°49' W 001°06'0 0.0
2017-Dec-08 08:30N 50°49' W 001°06'0 0.0
2017-Dec-08 08:00N 50°49' W 001°06'0 0.0
2017-Dec-08 07:30N 50°49' W 001°06'1 1.8
2017-Dec-08 07:00N 50°48' W 001°07'613.0
2017-Dec-08 06:30N 50°43' W 001°01'611.5
2017-Dec-08 06:01N 50°39' W 000°55'4 8.9
2017-Dec-08 05:31N 50°35' W 000°52'34 9.2
2017-Dec-08 01:48N 50°04' W 000°27'3 8.9
2017-Dec-08 01:28N 50°02' W 000°24'4 9.1
2017-Dec-08 01:01N 49°58' W 000°22'4 8.7
2017-Dec-08 00:30N 49°54' W 000°19'4 8.7
2017-Dec-08 00:00N 49°50' W 000°15'4 8.8
2017-Dec-07 23:31N 49°47' W 000°12'4 9.0
2017-Dec-07 23:00N 49°43' W 000°08'4 8.9
2017-Dec-07 22:30N 49°39' W 000°05'4 8.8
2017-Dec-07 22:01N 49°35' W 000°03'4 8.7
2017-Dec-07 21:31N 49°31' E 000°01'4 8.5
2017-Dec-07 21:00N 49°29' E 000°07'0 0.0
2017-Dec-07 20:31N 49°29' E 000°07'0 0.0
2017-Dec-07 20:00N 49°29' E 000°07'0 0.0
2017-Dec-07 19:31N 49°29' E 000°07'0 0.0
2017-Dec-07 19:00N 49°29' E 000°07'0 0.0
2017-Dec-07 18:30N 49°29' E 000°07'0 0.0
2017-Dec-07 18:00N 49°29' E 000°07'0 0.0
2017-Dec-07 17:30N 49°29' E 000°07'0 0.0
2017-Dec-07 17:00N 49°29' E 000°07'0 0.0
2017-Dec-07 16:31N 49°29' E 000°07'0 0.0
2017-Dec-07 16:01N 49°29' E 000°07'0 0.0
2017-Dec-07 15:30N 49°29' E 000°07'0 0.0
2017-Dec-07 15:01N 49°29' E 000°07'0 0.0
2017-Dec-07 14:31N 49°29' E 000°07'0 0.0
2017-Dec-07 14:00N 49°29' E 000°07'0 0.0
2017-Dec-07 13:31N 49°29' E 000°07'0 0.0
2017-Dec-07 13:00N 49°29' E 000°07'0 0.0
2017-Dec-07 12:30N 49°29' E 000°07'0 0.0
2017-Dec-07 12:01N 49°29' E 000°07'0 0.0
2017-Dec-07 11:31N 49°29' E 000°07'0 0.0
2017-Dec-07 11:00N 49°29' E 000°07'0 0.0
2017-Dec-07 10:31N 49°29' E 000°07'0 0.0
2017-Dec-07 10:01N 49°29' E 000°07'0 0.0
2017-Dec-07 09:31N 49°29' E 000°07'0 0.0
2017-Dec-07 09:01N 49°29' E 000°07'0 0.0
2017-Dec-07 08:30N 49°29' E 000°07'0 0.0
2017-Dec-07 08:00N 49°29' E 000°07'0 0.4
2017-Dec-07 07:30N 49°29' E 000°06'4 8.7
2017-Dec-07 07:01N 49°31' E 000°01'612.0
2017-Dec-07 06:30N 49°36' W 000°04'714.1
2017-Dec-07 06:01N 49°43' W 000°09'714.1
2017-Dec-07 05:30N 49°49' W 000°14'713.9
2017-Dec-07 05:00N 49°55' W 000°19'713.6
2017-Dec-07 04:30N 50°01' W 000°23'510.6
2017-Dec-07 04:00N 50°06' W 000°27'2911.7
2017-Dec-07 01:32N 50°31' W 000°49'113.3
2017-Dec-07 01:28N 50°32' W 000°50'613.2
2017-Dec-07 01:00N 50°37' W 000°54'713.1
2017-Dec-07 00:31N 50°43' W 000°59'713.1
2017-Dec-07 00:00N 50°48' W 001°07'1 2.5
2017-Dec-06 23:31N 50°49' W 001°06'0 0.0
2017-Dec-06 23:00N 50°49' W 001°06'0 0.0
2017-Dec-06 22:30N 50°49' W 001°06'0 0.0
2017-Dec-06 22:00N 50°49' W 001°06'0 0.2
2017-Dec-06 21:30N 50°49' W 001°06'3 5.7
2017-Dec-06 21:00N 50°46' W 001°05'  
2017-Dec-04 10:30N 49°29' E 000°07'0 0.0
2017-Dec-04 10:00N 49°29' E 000°07'0 0.0
2017-Dec-04 09:30N 49°29' E 000°07'0 0.0
2017-Dec-04 09:00N 49°29' E 000°07'0 0.0
2017-Dec-04 08:30N 49°29' E 000°07'0 0.0
2017-Dec-04 08:00N 49°29' E 000°07'0 0.0
2017-Dec-04 07:30N 49°29' E 000°07'2 4.4
2017-Dec-04 07:01N 49°29' E 000°03'612.4
2017-Dec-04 06:30N 49°36' E 000°02'2 3.9
2017-Dec-04 06:00N 49°38' E 000°01'1 1.8
2017-Dec-04 05:30N 49°38' E 000°00'1 1.1
2017-Dec-04 05:00N 49°39' W 000°00'612.9
2017-Dec-04 04:30N 49°43' W 000°08'815.1
2017-Dec-04 04:00N 49°49' W 000°14'816.0
2017-Dec-04 03:30N 49°56' W 000°20'815.7
2017-Dec-04 03:00N 50°03' W 000°26'3016.1
2017-Dec-04 01:10N 50°30' W 000°46'315.3
2017-Dec-04 00:59N 50°32' W 000°48'715.4
2017-Dec-04 00:30N 50°38' W 000°55'816.2
2017-Dec-04 00:00N 50°44' W 001°04'5 9.9
2017-Dec-03 23:30N 50°49' W 001°06'0 0.0
2017-Dec-03 23:00N 50°49' W 001°06'0 0.0
2017-Dec-03 22:30N 50°49' W 001°06'0 0.0
2017-Dec-03 22:00N 50°49' W 001°06'0 0.0
2017-Dec-03 21:30N 50°49' W 001°06'2 4.1
2017-Dec-03 21:00N 50°47' W 001°06'816.7
2017-Dec-03 20:30N 50°41' W 000°57'1019.5
2017-Dec-03 20:00N 50°33' W 000°48'1719.1
2017-Dec-03 19:07N 50°18' W 000°35'1418.8
2017-Dec-03 18:23N 50°05' W 000°26'719.4
2017-Dec-03 18:00N 49°58' W 000°22'1019.3
2017-Dec-03 17:30N 49°50' W 000°15'1019.5
2017-Dec-03 17:00N 49°41' W 000°07'1020.1
2017-Dec-03 16:30N 49°32' W 000°00'611.4
2017-Dec-03 16:00N 49°29' E 000°07'0 0.0
2017-Dec-03 15:30N 49°29' E 000°07'0 0.0
2017-Dec-03 15:00N 49°29' E 000°07'0 0.0
2017-Dec-03 14:30N 49°29' E 000°07'0 0.0
2017-Dec-03 14:00N 49°29' E 000°07'0 0.0
2017-Dec-03 13:30N 49°29' E 000°07'0 0.0
2017-Dec-03 13:00N 49°29' E 000°07'0 0.0
2017-Dec-03 12:30N 49°29' E 000°07'0 0.0
2017-Dec-03 12:00N 49°29' E 000°07'0 0.0
2017-Dec-03 11:30N 49°29' E 000°07'0 0.0
2017-Dec-03 11:00N 49°29' E 000°07'0 0.0
2017-Dec-03 10:30N 49°29' E 000°07'0 0.0
2017-Dec-03 10:00N 49°29' E 000°07'0 0.0
2017-Dec-03 09:30N 49°29' E 000°07'0 0.0
2017-Dec-03 09:00N 49°29' E 000°07'0 0.0
2017-Dec-03 08:30N 49°29' E 000°07'0 0.0
2017-Dec-03 08:00N 49°29' E 000°07'0 0.0
2017-Dec-03 07:30N 49°29' E 000°07'2 4.3
2017-Dec-03 07:00N 49°30' E 000°03'714.9
2017-Dec-03 06:31N 49°35' W 000°05'713.1
2017-Dec-03 06:00N 49°40' W 000°11'1 2.4
2017-Dec-03 05:30N 49°40' W 000°13'3 5.5
2017-Dec-03 05:00N 49°42' W 000°17'714.2
2017-Dec-03 04:30N 49°47' W 000°24'714.2
2017-Dec-03 04:00N 49°54' W 000°27'815.4
2017-Dec-03 03:31N 50°01' W 000°30'2913.6
2017-Dec-03 01:24N 50°28' W 000°46'613.0
2017-Dec-03 00:58N 50°33' W 000°50'511.8
2017-Dec-03 00:30N 50°38' W 000°55'612.7
2017-Dec-03 00:00N 50°43' W 001°00'611.6
2017-Dec-02 23:31N 50°47' W 001°06'2 3.1
2017-Dec-02 23:00N 50°49' W 001°06'0 0.0
2017-Dec-02 22:31N 50°49' W 001°06'0 0.0
2017-Dec-02 22:00N 50°49' W 001°06'0 0.0
2017-Dec-02 21:31N 50°49' W 001°06'2 4.4
2017-Dec-02 21:01N 50°46' W 001°06'816.7
2017-Dec-02 20:31N 50°40' W 000°57'918.4
2017-Dec-02 20:00N 50°32' W 000°50'2018.6
2017-Dec-02 18:57N 50°16' W 000°33'1218.9
2017-Dec-02 18:20N 50°05' W 000°26'618.8
2017-Dec-02 18:00N 49°60' W 000°22'918.7
2017-Dec-02 17:30N 49°51' W 000°16'1019.8
2017-Dec-02 17:00N 49°42' W 000°09'1020.5
2017-Dec-02 16:30N 49°33' W 000°01'713.1
2017-Dec-02 16:01N 49°29' E 000°06'0 0.5
2017-Dec-02 15:31N 49°29' E 000°07'0 0.0
2017-Dec-02 15:01N 49°29' E 000°07'0 0.0
2017-Dec-02 14:31N 49°29' E 000°07'0 0.0
2017-Dec-02 14:01N 49°29' E 000°07'0 0.0
2017-Dec-02 13:31N 49°29' E 000°07'0 0.0
2017-Dec-02 13:01N 49°29' E 000°07'0 0.0
2017-Dec-02 12:30N 49°29' E 000°07'0 0.0
2017-Dec-02 12:01N 49°29' E 000°07'0 0.0
2017-Dec-02 11:30N 49°29' E 000°07'0 0.0
2017-Dec-02 11:01N 49°29' E 000°07'0 0.0
2017-Dec-02 10:31N 49°29' E 000°07'0 0.0
2017-Dec-02 10:00N 49°29' E 000°07'0 0.0
2017-Dec-02 09:31N 49°29' E 000°07'0 0.0
2017-Dec-02 09:01N 49°29' E 000°07'0 0.0
2017-Dec-02 08:31N 49°29' E 000°07'0 0.0
2017-Dec-02 08:00N 49°29' E 000°07'0 0.0
2017-Dec-02 07:31N 49°29' E 000°07'1 1.4
2017-Dec-02 07:01N 49°29' E 000°06'713.1
2017-Dec-02 06:30N 49°34' W 000°02'713.2
2017-Dec-02 06:00N 49°40' W 000°06'611.6
2017-Dec-02 05:30N 49°45' W 000°10'612.1
2017-Dec-02 05:00N 49°50' W 000°15'611.9
2017-Dec-02 04:30N 49°55' W 000°19'611.3
2017-Dec-02 04:00N 49°60' W 000°24'510.4
2017-Dec-02 03:30N 50°04' W 000°29'2811.7
2017-Dec-02 01:09N 50°29' W 000°48'213.1
2017-Dec-02 00:59N 50°31' W 000°49'612.9
2017-Dec-02 00:30N 50°36' W 000°54'713.8
2017-Dec-02 00:00N 50°42' W 000°59'713.2
2017-Dec-01 23:30N 50°47' W 001°06'2 3.4
2017-Dec-01 23:00N 50°49' W 001°06'0 0.0
2017-Dec-01 22:31N 50°49' W 001°06'0 0.0
2017-Dec-01 22:00N 50°49' W 001°06'0 0.0
2017-Dec-01 21:31N 50°49' W 001°06'0 0.0
2017-Dec-01 21:00N 50°49' W 001°06'0 0.0
2017-Dec-01 20:31N 50°49' W 001°06'0 0.0
2017-Dec-01 20:00N 50°49' W 001°06'0 0.0
2017-Dec-01 19:30N 50°49' W 001°06'0 0.0
2017-Dec-01 19:00N 50°49' W 001°06'0 0.0
2017-Dec-01 18:30N 50°49' W 001°06'0 0.0
2017-Dec-01 18:01N 50°49' W 001°06'0 0.0
2017-Dec-01 17:31N 50°49' W 001°06'0 0.0
2017-Dec-01 17:00N 50°49' W 001°06'  

Dump ship's entire track history